createdAt,value
2023-02-27T19:39:30.170Z,90.95
2023-02-27T19:41:57.487Z,91.81
2023-02-27T19:44:24.124Z,91.59
2023-02-27T19:46:52.292Z,90.94
2023-02-27T19:49:20.889Z,90.89
2023-02-27T19:51:47.597Z,91.17
2023-02-27T19:54:15.679Z,90.25
2023-02-27T19:56:43.140Z,90.06
2023-02-27T19:59:12.357Z,90.01
2023-02-27T20:01:39.602Z,89.27
2023-02-27T20:04:07.922Z,89.77
2023-02-27T20:06:41.937Z,89.33
2023-02-27T20:09:15.468Z,88.60
2023-02-27T20:11:44.025Z,89.11
2023-02-27T20:14:13.921Z,88.56
2023-02-27T20:16:41.220Z,88.01
2023-02-27T20:19:10.514Z,87.84
2023-02-27T20:21:37.816Z,87.91
2023-02-27T20:24:04.967Z,87.48
2023-02-27T20:26:38.522Z,86.77
2023-02-27T20:29:16.956Z,86.00
2023-02-27T20:31:46.402Z,86.12
2023-02-27T20:34:15.953Z,85.54
2023-02-27T20:36:44.089Z,85.02
2023-02-27T20:39:12.009Z,84.32
2023-02-27T20:41:40.309Z,85.27
2023-02-27T20:44:08.693Z,84.14
2023-02-27T20:46:36.643Z,83.63
2023-02-27T20:49:05.123Z,82.74
2023-02-27T20:51:37.732Z,82.46
2023-02-27T20:54:07.352Z,82.29
2023-02-27T20:56:36.703Z,82.23
2023-02-27T20:59:04.119Z,81.25
2023-02-27T21:01:31.459Z,81.25
2023-02-27T21:03:59.107Z,81.94
2023-02-27T21:06:26.781Z,81.62
2023-02-27T21:08:56.620Z,81.41
2023-02-27T21:11:29.647Z,81.19
2023-02-27T21:13:59.107Z,81.41
2023-02-27T21:16:25.913Z,81.36
2023-02-27T21:18:54.125Z,81.15
2023-02-27T21:21:32.683Z,80.54
2023-02-27T21:24:00.663Z,80.81
2023-02-27T21:26:37.916Z,81.17
2023-02-27T21:29:11.770Z,80.86
2023-02-27T21:31:40.535Z,80.83
2023-02-27T21:34:11.374Z,80.66
2023-02-27T21:36:43.381Z,80.90
2023-02-27T21:39:18.797Z,81.29
2023-02-27T21:41:46.408Z,82.15
2023-02-27T21:44:16.785Z,82.00
2023-02-27T21:46:43.536Z,82.17
2023-02-27T21:49:16.505Z,81.94
2023-02-27T21:51:43.372Z,82.35
2023-02-27T21:54:12.062Z,82.74
2023-02-27T21:56:39.796Z,82.87
2023-02-27T21:59:07.223Z,83.51
2023-02-27T22:01:35.092Z,83.31
2023-02-27T22:04:02.235Z,83.46
2023-02-27T22:06:33.832Z,83.92
2023-02-27T22:09:04.890Z,83.83
2023-02-27T22:11:33.187Z,83.95
2023-02-27T22:14:00.092Z,84.04
2023-02-27T22:16:28.746Z,84.02
2023-02-27T22:18:55.446Z,84.16
2023-02-27T22:21:25.589Z,83.85
2023-02-27T22:23:52.750Z,84.23
2023-02-27T22:26:22.778Z,84.34
2023-02-27T22:28:50.172Z,84.45
2023-02-27T22:31:25.408Z,84.06
2023-02-27T22:33:54.081Z,84.16
2023-02-27T22:36:24.021Z,84.38
2023-02-27T22:38:51.256Z,84.21
2023-02-27T22:41:21.221Z,83.96
2023-02-27T22:43:48.339Z,84.31
2023-02-27T22:46:18.240Z,84.22
2023-02-27T22:48:45.010Z,84.55
2023-02-27T22:51:15.189Z,84.51
2023-02-27T22:53:44.988Z,84.33
2023-02-27T22:56:14.145Z,84.22
2023-02-27T22:58:42.706Z,84.09
2023-02-27T23:01:20.587Z,83.55
2023-02-27T23:03:50.160Z,84.04
2023-02-27T23:06:19.856Z,84.44
2023-02-27T23:08:46.823Z,84.66
2023-02-27T23:11:15.704Z,83.84
2023-02-27T23:13:42.570Z,83.80
2023-02-27T23:16:13.885Z,83.72
2023-02-27T23:18:42.384Z,83.61
2023-02-27T23:21:10.127Z,83.78
2023-02-27T23:23:37.143Z,84.03
2023-02-27T23:26:05.663Z,83.46
2023-02-27T23:28:34.665Z,83.34
2023-02-27T23:31:02.038Z,83.65
2023-02-27T23:33:29.888Z,84.12
2023-02-27T23:35:57.772Z,84.40
2023-02-27T23:38:25.422Z,84.67
2023-02-27T23:40:52.513Z,85.07
2023-02-27T23:43:19.175Z,84.75
2023-02-27T23:45:45.934Z,85.29
2023-02-27T23:48:13.088Z,84.98
2023-02-27T23:50:45.715Z,84.78
2023-02-27T23:53:15.985Z,85.02
2023-02-27T23:55:43.776Z,84.84
2023-02-27T23:58:11.227Z,84.55
